Time;durP1;ratioP1;P1;durP2;ratioP2;P2;SDS_P1;SDS_P2;PMS_P1;PMS_P2;Temp;Humidity;BMP_temperature;BMP_pressure;BME280_temperature;BME280_humidity;BME280_pressure;Samples;Min_cycle;Max_cycle;Signal;HPM_P1;HPM_P2
2021/12/09 00:02:20;;;;;;;28.33;10.83;;;;;;;-147.16;100.00;63173.31;4067698;29;20263;-75
2021/12/09 00:04:47;;;;;;;26.83;11.23;;;;;;;-147.16;100.00;63173.31;4068980;29;21481;-75
2021/12/09 00:07:14;;;;;;;28.73;10.83;;;;;;;-147.16;100.00;63173.31;4077328;29;20349;-76
2021/12/09 00:09:41;;;;;;;27.67;11.40;;;;;;;-147.16;100.00;63173.31;4060007;29;20942;-75
2021/12/09 00:12:08;;;;;;;31.07;11.67;;;;;;;-147.16;100.00;63173.31;4074076;29;22310;-74
2021/12/09 00:14:35;;;;;;;31.60;11.80;;;;;;;-147.16;100.00;63173.31;4080533;29;20294;-77
2021/12/09 00:17:06;;;;;;;27.43;10.80;;;;;;;-147.16;100.00;63173.31;4072370;29;20246;-75
2021/12/09 00:19:34;;;;;;;28.00;10.73;;;;;;;-147.16;100.00;63173.31;4069738;29;21709;-74
2021/12/09 00:22:02;;;;;;;29.37;11.93;;;;;;;-147.16;100.00;63173.31;4056896;29;24456;-75
2021/12/09 00:24:29;;;;;;;41.40;12.90;;;;;;;-147.16;100.00;63173.31;4058579;29;20310;-75
2021/12/09 00:26:56;;;;;;;33.33;11.87;;;;;;;-147.16;100.00;63173.31;4064787;29;20369;-73
2021/12/09 00:29:23;;;;;;;26.07;11.47;;;;;;;-147.16;100.00;63173.31;4072993;29;25848;-74
2021/12/09 00:31:50;;;;;;;30.33;11.53;;;;;;;-147.16;100.00;63173.31;4043902;29;20250;-74
2021/12/09 00:34:19;;;;;;;31.93;11.77;;;;;;;-147.16;100.00;63173.31;4070528;29;20234;-74
2021/12/09 00:36:56;;;;;;;31.43;11.50;;;;;;;-147.16;100.00;63173.31;4066141;29;20254;-74
2021/12/09 00:39:23;;;;;;;31.60;12.03;;;;;;;-147.16;100.00;63173.31;4060465;29;20351;-79
2021/12/09 00:41:50;;;;;;;26.37;11.47;;;;;;;-147.16;100.00;63173.31;4077832;29;20283;-77
2021/12/09 00:44:16;;;;;;;25.33;11.03;;;;;;;-147.16;100.00;63173.31;4064326;29;20350;-74
2021/12/09 00:46:43;;;;;;;29.80;11.23;;;;;;;-147.16;100.00;63173.31;4065486;29;20332;-75
2021/12/09 00:49:10;;;;;;;28.80;11.07;;;;;;;-147.16;100.00;63173.31;4066749;29;21285;-74
2021/12/09 00:51:36;;;;;;;28.17;10.63;;;;;;;-147.16;100.00;63173.31;4050877;29;20269;-73
2021/12/09 00:54:03;;;;;;;25.57;11.50;;;;;;;-147.16;100.00;63173.31;4060553;29;20250;-74
2021/12/09 00:56:30;;;;;;;32.80;11.07;;;;;;;-147.16;100.00;63173.31;4069399;29;20319;-74
2021/12/09 00:58:57;;;;;;;30.10;10.93;;;;;;;-147.16;100.00;63173.31;4085300;29;20238;-73
2021/12/09 01:01:23;;;;;;;28.53;10.70;;;;;;;-147.16;100.00;63173.31;4070860;29;20321;-75
2021/12/09 01:03:50;;;;;;;29.17;11.30;;;;;;;-147.16;100.00;63173.31;4072711;29;20274;-74
2021/12/09 01:06:16;;;;;;;33.57;11.77;;;;;;;-147.16;100.00;63173.31;4086941;29;20316;-74
2021/12/09 01:08:43;;;;;;;30.23;11.27;;;;;;;-147.16;100.00;63173.31;4056599;29;20555;-74
2021/12/09 01:11:12;;;;;;;33.93;12.20;;;;;;;-147.16;100.00;63173.31;4069129;29;20244;-76
2021/12/09 01:13:39;;;;;;;29.53;10.10;;;;;;;-147.16;100.00;63173.31;4072963;29;20343;-74
2021/12/09 01:16:06;;;;;;;54.60;18.70;;;;;;;-147.16;100.00;63173.31;4074551;29;22287;-75
2021/12/09 01:18:34;;;;;;;48.23;16.90;;;;;;;-147.16;100.00;63173.31;4069867;29;20244;-74
2021/12/09 01:21:02;;;;;;;32.87;13.27;;;;;;;-147.16;100.00;63173.31;4047170;29;20254;-74
2021/12/09 01:23:29;;;;;;;32.43;13.03;;;;;;;-147.16;100.00;63173.31;4061572;29;20267;-74
2021/12/09 01:26:01;;;;;;;29.63;11.93;;;;;;;-147.16;100.00;63173.31;4052821;29;20249;-75
2021/12/09 01:28:32;;;;;;;30.50;12.03;;;;;;;-147.16;100.00;63173.31;4068472;29;20243;-75
2021/12/09 01:31:04;;;;;;;28.57;12.00;;;;;;;-147.16;100.00;63173.31;4071592;29;20246;-75
2021/12/09 01:33:31;;;;;;;32.53;12.33;;;;;;;-147.16;100.00;63173.31;4056654;29;20404;-73
2021/12/09 01:35:58;;;;;;;33.33;12.33;;;;;;;-147.16;100.00;63173.31;4079035;29;20317;-73
2021/12/09 01:38:29;;;;;;;29.60;12.30;;;;;;;-147.16;100.00;63173.31;4075828;29;20237;-74
2021/12/09 01:40:56;;;;;;;34.07;13.00;;;;;;;-147.16;100.00;63173.31;4071202;29;22157;-74
2021/12/09 01:43:23;;;;;;;41.53;15.07;;;;;;;-147.16;100.00;63173.31;4071358;29;20313;-73
2021/12/09 01:46:04;;;;;;;34.13;13.87;;;;;;;-147.16;100.00;63173.31;4080068;29;21193;-75
2021/12/09 01:48:31;;;;;;;36.73;14.93;;;;;;;-147.16;100.00;63173.31;4064230;29;20335;-74
2021/12/09 01:50:58;;;;;;;33.10;12.80;;;;;;;-147.16;100.00;63173.31;4062381;29;20317;-73
2021/12/09 01:53:25;;;;;;;36.87;13.00;;;;;;;-147.16;100.00;63173.31;4074828;29;21810;-74
2021/12/09 01:55:52;;;;;;;35.93;13.33;;;;;;;-147.16;100.00;63173.31;4081570;29;20342;-76
2021/12/09 01:58:18;;;;;;;34.20;14.03;;;;;;;-147.16;100.00;63173.31;4074150;29;20254;-73
2021/12/09 02:00:45;;;;;;;38.70;14.57;;;;;;;-147.16;100.00;63173.31;4074171;29;22127;-75
2021/12/09 02:03:11;;;;;;;35.17;14.47;;;;;;;-147.16;100.00;63173.31;4064643;29;20242;-74
2021/12/09 02:05:41;;;;;;;36.03;13.17;;;;;;;-147.16;100.00;63173.31;4067747;29;22462;-73
2021/12/09 02:08:09;;;;;;;31.70;13.40;;;;;;;-147.16;100.00;63173.31;4067717;29;22241;-74
2021/12/09 02:10:35;;;;;;;34.70;13.73;;;;;;;-147.16;100.00;63173.31;4072226;29;20696;-73
2021/12/09 02:13:02;;;;;;;35.67;13.47;;;;;;;-147.16;100.00;63173.31;4066996;29;23027;-73
2021/12/09 02:15:28;;;;;;;31.13;13.30;;;;;;;-147.16;100.00;63173.31;4074004;29;20670;-74
2021/12/09 02:17:56;;;;;;;32.07;13.47;;;;;;;-147.16;100.00;63173.31;4068831;29;20453;-75
2021/12/09 02:20:27;;;;;;;34.97;13.70;;;;;;;-147.16;100.00;63173.31;4065153;29;20269;-76
2021/12/09 02:22:56;;;;;;;35.13;14.40;;;;;;;-147.16;100.00;63173.31;4070917;29;20255;-77
2021/12/09 02:25:23;;;;;;;38.53;14.93;;;;;;;-147.16;100.00;63173.31;4053864;29;22358;-77
2021/12/09 02:27:50;;;;;;;39.13;14.53;;;;;;;-147.16;100.00;63173.31;4078317;29;20246;-76
2021/12/09 02:30:16;;;;;;;40.37;14.67;;;;;;;-147.16;100.00;63173.31;4070727;29;20266;-77
2021/12/09 02:32:45;;;;;;;40.57;15.23;;;;;;;-147.16;100.00;63173.31;4055193;29;20246;-78
2021/12/09 02:35:12;;;;;;;35.83;13.60;;;;;;;-147.16;100.00;63173.31;4051192;29;21216;-78
2021/12/09 02:37:38;;;;;;;44.87;15.07;;;;;;;-147.16;100.00;63173.31;4064121;29;22248;-77
2021/12/09 02:40:06;;;;;;;41.30;15.13;;;;;;;-147.16;100.00;63173.31;4060348;29;20335;-77
2021/12/09 02:42:34;;;;;;;35.60;14.50;;;;;;;-147.16;100.00;63173.31;4067589;29;20238;-76
2021/12/09 02:45:02;;;;;;;41.67;15.13;;;;;;;-147.16;100.00;63173.31;4071107;29;20246;-76
2021/12/09 02:47:29;;;;;;;38.43;15.10;;;;;;;-147.16;100.00;63173.31;4047093;29;20315;-76
2021/12/09 02:49:56;;;;;;;38.57;14.53;;;;;;;-147.16;100.00;63173.31;4069590;29;20243;-78
2021/12/09 02:52:22;;;;;;;40.67;14.73;;;;;;;-147.16;100.00;63173.31;4074861;29;22359;-76
2021/12/09 02:54:49;;;;;;;35.67;14.60;;;;;;;-147.16;100.00;63173.31;4073939;29;20244;-78
2021/12/09 02:57:16;;;;;;;38.80;14.40;;;;;;;-147.16;100.00;63173.31;4059282;29;21224;-76
2021/12/09 02:59:42;;;;;;;38.33;13.93;;;;;;;-147.16;100.00;63173.31;4070000;29;20520;-76
2021/12/09 03:02:10;;;;;;;35.23;14.53;;;;;;;-147.16;100.00;63173.31;4051153;29;20239;-77
2021/12/09 03:04:47;;;;;;;35.77;13.47;;;;;;;-147.16;100.00;63173.31;4074333;29;20251;-78
2021/12/09 03:07:29;;;;;;;35.47;13.73;;;;;;;-147.16;100.00;63173.31;4063902;29;21313;-79
2021/12/09 03:10:00;;;;;;;34.27;13.73;;;;;;;-147.16;100.00;63173.31;4069553;29;20306;-77
2021/12/09 03:12:29;;;;;;;40.50;14.67;;;;;;;-147.16;100.00;63173.31;4045426;29;20235;-78
2021/12/09 03:14:56;;;;;;;34.53;13.50;;;;;;;-147.16;100.00;63173.31;4065484;29;20706;-75
2021/12/09 03:17:23;;;;;;;35.83;13.97;;;;;;;-147.16;100.00;63173.31;4063344;29;20280;-78
2021/12/09 03:19:50;;;;;;;34.10;12.67;;;;;;;-147.16;100.00;63173.31;4058621;29;20242;-76
2021/12/09 03:22:17;;;;;;;39.10;14.20;;;;;;;-147.16;100.00;63173.31;4088204;29;20314;-76
2021/12/09 03:24:44;;;;;;;40.03;14.67;;;;;;;-147.16;100.00;63173.31;4067127;29;20234;-76
2021/12/09 03:27:11;;;;;;;39.43;14.60;;;;;;;-147.16;100.00;63173.31;4072435;29;22479;-75
2021/12/09 03:29:39;;;;;;;37.67;13.87;;;;;;;-147.16;100.00;63173.31;4066639;29;23096;-75
2021/12/09 03:32:10;;;;;;;38.73;13.83;;;;;;;-147.16;100.00;63173.31;4062311;29;20282;-76
2021/12/09 03:34:38;;;;;;;35.57;13.47;;;;;;;-147.16;100.00;63173.31;4067353;29;20238;-76
2021/12/09 03:37:08;;;;;;;41.13;14.50;;;;;;;-147.16;100.00;63173.31;4057821;29;22040;-75
2021/12/09 03:39:36;;;;;;;34.03;13.67;;;;;;;-147.16;100.00;63173.31;4060499;29;22959;-77
2021/12/09 03:42:06;;;;;;;34.87;13.23;;;;;;;-147.16;100.00;63173.31;4071251;29;22810;-76
2021/12/09 03:44:33;;;;;;;35.83;13.83;;;;;;;-147.16;100.00;63173.31;4069365;29;21670;-77
2021/12/09 03:47:03;;;;;;;37.07;12.53;;;;;;;-147.16;100.00;63173.31;4051086;29;20245;-77
2021/12/09 03:49:30;;;;;;;38.57;14.37;;;;;;;-147.16;100.00;63173.31;4070898;29;23474;-75
2021/12/09 03:51:57;;;;;;;38.77;13.87;;;;;;;-147.16;100.00;63173.31;4066268;29;20242;-76
2021/12/09 03:54:25;;;;;;;30.50;13.03;;;;;;;-147.16;100.00;63173.31;4059180;29;20240;-79
2021/12/09 03:56:52;;;;;;;38.67;13.50;;;;;;;-147.16;100.00;63173.31;4054280;29;26879;-77
2021/12/09 03:59:18;;;;;;;37.33;13.00;;;;;;;-147.16;100.00;63173.31;4057544;29;20299;-76
2021/12/09 04:01:46;;;;;;;33.33;13.47;;;;;;;-147.16;100.00;63173.31;4082322;29;20253;-75
2021/12/09 04:04:13;;;;;;;28.07;11.57;;;;;;;-147.16;100.00;63173.31;4083124;29;23320;-76
2021/12/09 04:06:42;;;;;;;34.67;13.60;;;;;;;-147.16;100.00;63173.31;4047037;29;21277;-76
2021/12/09 04:09:11;;;;;;;33.77;14.13;;;;;;;-147.16;100.00;63173.31;4084696;29;20621;-75
2021/12/09 04:11:38;;;;;;;29.47;11.80;;;;;;;-147.16;100.00;63173.31;4067596;29;20254;-77
2021/12/09 04:14:05;;;;;;;36.37;12.70;;;;;;;-147.16;100.00;63173.31;4064587;29;20240;-77
2021/12/09 04:16:33;;;;;;;33.53;13.00;;;;;;;-147.16;100.00;63173.31;4057723;29;20243;-75
2021/12/09 04:18:59;;;;;;;36.40;12.60;;;;;;;-147.16;100.00;63173.31;4062364;29;20245;-77
2021/12/09 04:21:26;;;;;;;37.30;13.53;;;;;;;-147.16;100.00;63173.31;4045000;29;20258;-76
2021/12/09 04:23:53;;;;;;;33.77;13.03;;;;;;;-147.16;100.00;63173.31;4061241;29;21417;-77
2021/12/09 04:26:20;;;;;;;28.97;12.27;;;;;;;-147.16;100.00;63173.31;4079268;29;20246;-74
2021/12/09 04:28:47;;;;;;;28.80;11.70;;;;;;;-147.16;100.00;63173.31;4064169;29;22307;-73
2021/12/09 04:31:14;;;;;;;30.33;11.30;;;;;;;-147.16;100.00;63173.31;4068724;29;21287;-75
2021/12/09 04:33:42;;;;;;;32.60;11.77;;;;;;;-147.16;100.00;63173.31;4068121;29;21419;-73
2021/12/09 04:36:10;;;;;;;30.70;11.40;;;;;;;-147.16;100.00;63173.31;4076868;29;21276;-74
2021/12/09 04:38:37;;;;;;;29.93;11.20;;;;;;;-147.16;100.00;63173.31;4066541;29;20723;-75
2021/12/09 04:41:04;;;;;;;33.67;12.33;;;;;;;-147.16;100.00;63173.31;4051568;29;20589;-74
2021/12/09 04:43:31;;;;;;;30.03;11.80;;;;;;;-147.16;100.00;63173.31;4085402;29;22251;-75
2021/12/09 04:45:59;;;;;;;30.37;9.83;;;;;;;-147.16;100.00;63173.31;4077706;29;20700;-74
2021/12/09 04:48:26;;;;;;;30.03;12.30;;;;;;;-147.16;100.00;63173.31;4060424;29;21367;-75
2021/12/09 04:50:52;;;;;;;31.30;11.33;;;;;;;-147.16;100.00;63173.31;4061425;29;20323;-74
2021/12/09 04:53:19;;;;;;;31.07;11.60;;;;;;;-147.16;100.00;63173.31;4067364;29;20242;-75
2021/12/09 04:55:45;;;;;;;28.60;11.03;;;;;;;-147.16;100.00;63173.31;4064338;29;23143;-73
2021/12/09 04:58:12;;;;;;;29.97;12.00;;;;;;;-147.16;100.00;63173.31;4069681;29;21280;-75
2021/12/09 05:00:39;;;;;;;31.77;11.70;;;;;;;-147.16;100.00;63173.31;4058320;29;23380;-74
2021/12/09 05:03:09;;;;;;;29.17;10.83;;;;;;;-147.16;100.00;63173.31;4067147;29;20245;-75
2021/12/09 05:05:43;;;;;;;32.30;11.10;;;;;;;-147.16;100.00;63173.31;4073517;29;21112;-75
2021/12/09 05:08:15;;;;;;;33.40;11.53;;;;;;;-147.16;100.00;63173.31;4091380;29;20246;-74
2021/12/09 05:10:54;;;;;;;28.57;11.77;;;;;;;-147.16;100.00;63173.31;4065429;29;21839;-77
2021/12/09 05:13:24;;;;;;;31.80;11.97;;;;;;;-147.16;100.00;63173.31;4087927;29;20242;-72
2021/12/09 05:15:50;;;;;;;28.63;11.10;;;;;;;-147.16;100.00;63173.31;4070539;29;20666;-74
2021/12/09 05:18:18;;;;;;;30.90;11.27;;;;;;;-147.16;100.00;63173.31;4059137;29;20767;-75
2021/12/09 05:20:46;;;;;;;26.10;10.00;;;;;;;-147.16;100.00;63173.31;4050523;29;20272;-75
2021/12/09 05:23:14;;;;;;;25.20;9.97;;;;;;;-147.16;100.00;63173.31;4067295;29;20247;-74
2021/12/09 05:25:42;;;;;;;26.43;11.07;;;;;;;-147.16;100.00;63173.31;4073387;29;20567;-74
2021/12/09 05:28:10;;;;;;;26.73;10.50;;;;;;;-147.16;100.00;63173.31;4051036;29;20473;-74
2021/12/09 05:32:07;;;;;;;31.93;12.00;;;;;;;-147.16;100.00;63173.31;4062240;29;20265;-76
2021/12/09 05:33:30;;;;;;;32.20;10.83;;;;;;;-147.16;100.00;63173.31;4058331;29;20771;-74
2021/12/09 05:35:56;;;;;;;23.30;10.33;;;;;;;-147.16;100.00;63173.31;4086888;29;20269;-74
2021/12/09 05:38:23;;;;;;;29.67;11.30;;;;;;;-147.16;100.00;63173.31;4068724;29;20287;-74
2021/12/09 05:40:50;;;;;;;23.13;10.33;;;;;;;-147.16;100.00;63173.31;4075653;29;23035;-73
2021/12/09 05:43:17;;;;;;;31.57;11.40;;;;;;;-147.16;100.00;63173.31;4088139;29;20370;-73
2021/12/09 05:45:44;;;;;;;32.33;11.63;;;;;;;-147.16;100.00;63173.31;4054313;29;25432;-74
2021/12/09 05:48:11;;;;;;;30.07;12.50;;;;;;;-147.16;100.00;63173.31;4072791;29;20250;-74
2021/12/09 05:50:38;;;;;;;34.83;14.00;;;;;;;-147.16;100.00;63173.31;4066419;29;20283;-74
2021/12/09 05:53:05;;;;;;;32.43;11.27;;;;;;;-147.16;100.00;63173.31;4071856;29;21075;-74
2021/12/09 05:55:32;;;;;;;29.37;12.20;;;;;;;-147.16;100.00;63173.31;4068667;29;21756;-72
2021/12/09 05:57:59;;;;;;;31.80;12.03;;;;;;;-147.16;100.00;63173.31;4075214;29;20261;-75
2021/12/09 06:00:25;;;;;;;32.80;10.70;;;;;;;-147.16;100.00;63173.31;4063370;29;20238;-74
2021/12/09 06:02:52;;;;;;;26.73;11.23;;;;;;;-147.16;100.00;63173.31;4072183;29;20432;-73
2021/12/09 06:05:19;;;;;;;34.43;12.93;;;;;;;-147.16;100.00;63173.31;4063726;29;20246;-73
2021/12/09 06:07:47;;;;;;;31.87;12.00;;;;;;;-147.16;100.00;63173.31;4062816;29;20240;-73
2021/12/09 06:10:13;;;;;;;37.27;12.60;;;;;;;-147.16;100.00;63173.31;4033184;29;20753;-75
2021/12/09 06:12:40;;;;;;;28.70;11.67;;;;;;;-147.16;100.00;63173.31;4053770;29;20244;-72
2021/12/09 06:15:07;;;;;;;30.57;11.43;;;;;;;-147.16;100.00;63173.31;4067212;29;20247;-74
2021/12/09 06:17:34;;;;;;;33.83;12.73;;;;;;;-147.16;100.00;63173.31;4065494;29;20246;-73
2021/12/09 06:20:00;;;;;;;28.87;11.40;;;;;;;-147.16;100.00;63173.31;4059287;29;20234;-75
2021/12/09 06:22:27;;;;;;;30.17;12.93;;;;;;;-147.16;100.00;63173.31;4065823;29;20247;-76
2021/12/09 06:24:53;;;;;;;30.90;12.50;;;;;;;-147.16;100.00;63173.31;4050012;29;20314;-74
2021/12/09 06:27:20;;;;;;;33.40;13.13;;;;;;;-147.16;100.00;63173.31;4055781;29;20234;-73
2021/12/09 06:29:46;;;;;;;29.23;11.83;;;;;;;-147.16;100.00;63173.31;4059949;29;20301;-74
2021/12/09 06:32:13;;;;;;;27.57;11.63;;;;;;;-147.16;100.00;63173.31;4059912;29;20233;-74
2021/12/09 06:34:40;;;;;;;31.87;12.57;;;;;;;-147.16;100.00;63173.31;4059113;29;20239;-76
2021/12/09 06:37:08;;;;;;;36.80;11.90;;;;;;;-147.16;100.00;63173.31;4072440;29;20238;-74
2021/12/09 06:39:34;;;;;;;35.93;14.13;;;;;;;-147.16;100.00;63173.31;4061099;29;20533;-75
2021/12/09 06:42:01;;;;;;;28.47;12.23;;;;;;;-147.16;100.00;63173.31;4046314;29;21469;-74
2021/12/09 06:44:27;;;;;;;32.80;12.23;;;;;;;-147.16;100.00;63173.31;4063941;29;21835;-74
2021/12/09 06:46:56;;;;;;;29.40;12.90;;;;;;;-147.16;100.00;63173.31;4062506;29;22980;-73
2021/12/09 06:49:23;;;;;;;35.57;12.73;;;;;;;-147.16;100.00;63173.31;4070417;29;22298;-73
2021/12/09 06:51:50;;;;;;;35.13;13.00;;;;;;;-147.16;100.00;63173.31;4064332;29;20244;-75
2021/12/09 06:54:17;;;;;;;33.87;13.53;;;;;;;-147.16;100.00;63173.31;4041131;29;20300;-75
2021/12/09 06:56:44;;;;;;;31.60;12.00;;;;;;;-147.16;100.00;63173.31;4057890;29;20339;-75
2021/12/09 06:59:11;;;;;;;35.63;14.03;;;;;;;-147.16;100.00;63173.31;4079602;29;20393;-79
2021/12/09 07:01:38;;;;;;;37.53;13.63;;;;;;;-147.16;100.00;63173.31;4043876;29;20350;-76
2021/12/09 07:04:08;;;;;;;30.47;11.47;;;;;;;-147.16;100.00;63173.31;4050089;29;21009;-78
2021/12/09 07:06:36;;;;;;;31.10;11.60;;;;;;;-147.16;100.00;63173.31;4070075;29;20381;-76
2021/12/09 07:09:04;;;;;;;32.33;13.90;;;;;;;-147.16;100.00;63173.31;4072584;29;20255;-76
2021/12/09 07:11:37;;;;;;;32.13;12.67;;;;;;;-147.16;100.00;63173.31;4081381;29;20561;-74
2021/12/09 07:14:05;;;;;;;40.77;14.30;;;;;;;-147.16;100.00;63173.31;4069365;29;20246;-75
2021/12/09 07:16:32;;;;;;;37.50;13.97;;;;;;;-147.16;100.00;63173.31;4091789;29;21569;-77
2021/12/09 07:19:00;;;;;;;37.40;13.83;;;;;;;-147.16;100.00;63173.31;4068450;29;20320;-78
2021/12/09 07:21:26;;;;;;;36.93;14.57;;;;;;;-147.16;100.00;63173.31;4067713;29;21046;-74
2021/12/09 07:23:53;;;;;;;40.67;15.20;;;;;;;-147.16;100.00;63173.31;4096664;29;20238;-73
2021/12/09 07:26:20;;;;;;;30.30;13.87;;;;;;;-147.16;100.00;63173.31;4087582;29;20240;-74
2021/12/09 07:28:46;;;;;;;31.43;13.00;;;;;;;-147.16;100.00;63173.31;4082824;29;20391;-74
2021/12/09 07:31:14;;;;;;;36.73;12.97;;;;;;;-147.16;100.00;63173.31;4074397;29;21212;-75
2021/12/09 07:33:40;;;;;;;36.03;13.80;;;;;;;-147.16;100.00;63173.31;4066107;29;20289;-76
2021/12/09 07:36:07;;;;;;;39.00;11.73;;;;;;;-147.16;100.00;63173.31;4073428;29;20250;-76
2021/12/09 07:38:34;;;;;;;39.27;13.37;;;;;;;-147.16;100.00;63173.31;4085994;29;22594;-77
2021/12/09 07:41:02;;;;;;;35.20;13.73;;;;;;;-147.16;100.00;63173.31;4084038;29;20311;-74
2021/12/09 07:43:29;;;;;;;31.43;12.93;;;;;;;-147.16;100.00;63173.31;4065169;29;20262;-75
2021/12/09 07:45:55;;;;;;;34.90;13.43;;;;;;;-147.16;100.00;63173.31;4078060;29;20732;-75
2021/12/09 07:48:22;;;;;;;39.53;13.20;;;;;;;-147.16;100.00;63173.31;4081048;29;20355;-77
2021/12/09 07:50:49;;;;;;;36.10;14.20;;;;;;;-147.16;100.00;63173.31;4071440;29;20268;-74
2021/12/09 07:53:17;;;;;;;40.07;14.10;;;;;;;-147.16;100.00;63173.31;4056598;29;20241;-76
2021/12/09 07:55:45;;;;;;;38.90;13.87;;;;;;;-147.16;100.00;63173.31;4070678;29;20242;-74
2021/12/09 07:58:12;;;;;;;33.47;13.40;;;;;;;-147.16;100.00;63173.31;4067063;29;21418;-74
2021/12/09 08:00:38;;;;;;;30.07;12.27;;;;;;;-147.16;100.00;63173.31;4070991;29;20238;-77
2021/12/09 08:03:05;;;;;;;35.43;13.37;;;;;;;-147.16;100.00;63173.31;4079256;29;20517;-75
2021/12/09 08:05:35;;;;;;;35.77;13.20;;;;;;;-147.16;100.00;63173.31;4071755;29;20249;-74
